createdAt,value
2023-04-30T00:00:11.761Z,92.57
2023-04-30T00:01:11.831Z,92.57
2023-04-30T00:02:11.918Z,92.78
2023-04-30T00:03:12.104Z,92.88
2023-04-30T00:04:12.102Z,92.88
2023-04-30T00:05:12.131Z,92.98
2023-04-30T00:06:12.273Z,92.98
2023-04-30T00:07:12.299Z,93.02
2023-04-30T00:08:12.373Z,93.08
2023-04-30T00:09:12.444Z,93.02
2023-04-30T00:10:12.544Z,92.93
2023-04-30T00:11:12.635Z,92.82
2023-04-30T00:12:12.726Z,92.93
2023-04-30T00:13:12.809Z,92.93
2023-04-30T00:14:12.877Z,92.93
2023-04-30T00:15:12.955Z,92.82
2023-04-30T00:16:13.083Z,92.86
2023-04-30T00:17:13.089Z,92.97
2023-04-30T00:18:13.275Z,93.27
2023-04-30T00:19:13.247Z,93.38
2023-04-30T00:20:13.342Z,93.27
2023-04-30T00:21:13.434Z,93.38
2023-04-30T00:22:13.533Z,93.27
2023-04-30T00:23:13.617Z,93.27
2023-04-30T00:24:13.712Z,93.17
2023-04-30T00:25:13.801Z,93.07
2023-04-30T00:26:13.889Z,93.01
2023-04-30T00:27:13.982Z,93.01
2023-04-30T00:28:14.082Z,93.12
2023-04-30T00:29:14.148Z,93.12
2023-04-30T00:30:14.249Z,93.12
2023-04-30T00:31:14.334Z,93.12
2023-04-30T00:32:14.598Z,93.32
2023-04-30T00:33:14.538Z,93.42
2023-04-30T00:34:14.540Z,93.57
2023-04-30T00:35:14.638Z,93.57
2023-04-30T00:36:14.717Z,93.67
2023-04-30T00:37:14.801Z,93.87
2023-04-30T00:38:14.927Z,93.87
2023-04-30T00:39:14.985Z,93.77
2023-04-30T00:40:15.147Z,93.87
2023-04-30T00:41:15.165Z,94.18
2023-04-30T00:42:15.256Z,94.08
2023-04-30T00:43:15.320Z,94.29
2023-04-30T00:44:15.375Z,94.49
2023-04-30T00:45:15.451Z,94.80
2023-04-30T00:46:15.600Z,95.42
2023-04-30T00:47:15.610Z,95.42
2023-04-30T00:48:15.724Z,95.21
2023-04-30T00:49:15.736Z,95.46
2023-04-30T00:50:16.027Z,95.46
2023-04-30T00:51:15.914Z,95.36
2023-04-30T00:52:16.010Z,95.25
2023-04-30T00:53:16.071Z,95.15
2023-04-30T00:54:16.159Z,94.95
2023-04-30T00:55:16.239Z,94.84
2023-04-30T00:56:16.337Z,94.78
2023-04-30T00:57:16.410Z,94.68
2023-04-30T00:58:16.533Z,94.68
2023-04-30T00:59:16.601Z,94.68
2023-04-30T01:00:16.717Z,94.68
2023-04-30T01:01:16.810Z,94.68
2023-04-30T01:02:16.900Z,94.68
2023-04-30T01:03:17.103Z,94.58
2023-04-30T01:04:17.008Z,94.58
2023-04-30T01:05:17.115Z,94.58
2023-04-30T01:06:17.221Z,94.62
2023-04-30T01:07:17.274Z,94.62
2023-04-30T01:08:17.400Z,94.68
2023-04-30T01:09:17.449Z,94.73
2023-04-30T01:10:17.509Z,94.62
2023-04-30T01:11:17.594Z,94.73
2023-04-30T01:12:17.664Z,94.83
2023-04-30T01:13:17.753Z,94.83
2023-04-30T01:14:17.856Z,94.78
2023-04-30T01:15:17.892Z,94.68
2023-04-30T01:16:18.006Z,94.73
2023-04-30T01:17:18.046Z,94.62
2023-04-30T01:18:18.210Z,94.62
2023-04-30T01:19:18.175Z,94.62
2023-04-30T01:20:18.270Z,94.73
2023-04-30T01:21:18.307Z,94.62
2023-04-30T01:22:18.385Z,94.62
2023-04-30T01:23:18.641Z,94.52
2023-04-30T01:24:18.550Z,94.42
2023-04-30T01:25:18.624Z,94.52
2023-04-30T01:26:18.683Z,94.31
2023-04-30T01:27:18.754Z,94.31
2023-04-30T01:28:18.841Z,94.36
2023-04-30T01:29:18.925Z,94.36
2023-04-30T01:30:19.000Z,94.36
2023-04-30T01:31:19.168Z,94.26
2023-04-30T01:32:19.205Z,94.26
2023-04-30T01:33:19.300Z,94.36
2023-04-30T01:34:19.353Z,94.56
2023-04-30T01:35:19.442Z,94.67
2023-04-30T01:36:19.532Z,94.56
2023-04-30T01:37:19.614Z,94.56
2023-04-30T01:38:19.725Z,94.51
2023-04-30T01:39:19.780Z,94.60
2023-04-30T01:40:19.869Z,94.60
2023-04-30T01:41:19.907Z,94.51
2023-04-30T01:42:20.005Z,94.51
2023-04-30T01:43:20.089Z,94.51
2023-04-30T01:44:20.238Z,94.40
2023-04-30T01:45:20.257Z,94.30
2023-04-30T01:46:20.395Z,94.30
2023-04-30T01:47:20.462Z,94.20
2023-04-30T01:48:20.507Z,94.40
2023-04-30T01:49:20.582Z,94.51
2023-04-30T01:50:20.665Z,94.40
2023-04-30T01:51:20.749Z,94.30
2023-04-30T01:52:20.830Z,94.20
2023-04-30T01:53:20.942Z,94.20
2023-04-30T01:54:20.994Z,94.24
2023-04-30T01:55:21.074Z,94.24
2023-04-30T01:56:21.156Z,94.45
2023-04-30T01:57:21.249Z,94.45
2023-04-30T01:58:21.369Z,94.55
2023-04-30T01:59:21.411Z,94.40
2023-04-30T02:00:21.529Z,94.40
2023-04-30T02:01:21.588Z,94.45
2023-04-30T02:02:21.843Z,94.34
2023-04-30T02:03:21.860Z,94.24
2023-04-30T02:04:21.837Z,94.13
2023-04-30T02:05:22.006Z,94.03
2023-04-30T02:06:22.034Z,93.87
2023-04-30T02:07:22.086Z,93.66
2023-04-30T02:08:22.198Z,93.56
2023-04-30T02:09:22.240Z,93.46
2023-04-30T02:10:22.333Z,93.46
2023-04-30T02:11:22.414Z,93.40
2023-04-30T02:12:22.511Z,93.60
2023-04-30T02:13:22.589Z,93.60
2023-04-30T02:14:22.664Z,94.02
2023-04-30T02:15:22.721Z,94.12
2023-04-30T02:16:22.880Z,94.32
2023-04-30T02:17:22.903Z,94.38
2023-04-30T02:18:23.118Z,94.53
2023-04-30T02:19:23.040Z,94.49
2023-04-30T02:20:23.126Z,94.49
2023-04-30T02:21:23.200Z,94.59
2023-04-30T02:22:23.284Z,94.38
2023-04-30T02:23:23.387Z,94.28
2023-04-30T02:24:23.474Z,94.28
2023-04-30T02:25:23.565Z,94.23
2023-04-30T02:26:23.665Z,94.23
2023-04-30T02:27:23.731Z,94.12
2023-04-30T02:28:23.856Z,94.12
2023-04-30T02:29:23.885Z,94.23
2023-04-30T02:30:23.990Z,94.23
2023-04-30T02:31:24.155Z,94.32
2023-04-30T02:32:24.142Z,94.32
2023-04-30T02:33:24.236Z,94.23
2023-04-30T02:34:24.288Z,94.12
2023-04-30T02:35:24.394Z,94.02
2023-04-30T02:36:24.455Z,93.91
2023-04-30T02:37:24.562Z,93.91
2023-04-30T02:38:24.639Z,93.81
2023-04-30T02:39:24.713Z,93.81
2023-04-30T02:40:24.769Z,93.91
2023-04-30T02:41:24.844Z,93.91
2023-04-30T02:42:24.910Z,93.91
2023-04-30T02:43:25.000Z,94.02
2023-04-30T02:44:25.056Z,94.12
2023-04-30T02:45:25.218Z,94.17
2023-04-30T02:46:25.273Z,94.17
2023-04-30T02:47:25.330Z,94.27
2023-04-30T02:48:25.409Z,94.27
2023-04-30T02:49:25.456Z,94.27
2023-04-30T02:50:25.539Z,94.17
2023-04-30T02:51:25.648Z,94.27
2023-04-30T02:52:25.715Z,94.17
2023-04-30T02:53:25.836Z,94.21
2023-04-30T02:54:25.878Z,94.52
2023-04-30T02:55:25.947Z,94.93
2023-04-30T02:56:26.021Z,94.93
2023-04-30T02:57:26.069Z,95.45
2023-04-30T02:58:26.167Z,95.65
2023-04-30T02:59:26.238Z,95.76
2023-04-30T03:00:26.322Z,95.65
2023-04-30T03:01:26.454Z,95.65
2023-04-30T03:02:26.491Z,95.65
2023-04-30T03:03:26.674Z,95.45
2023-04-30T03:04:26.625Z,95.34
2023-04-30T03:05:26.694Z,95.24
2023-04-30T03:06:26.960Z,95.24
2023-04-30T03:07:26.877Z,95.24
2023-04-30T03:08:26.964Z,95.28
2023-04-30T03:09:27.025Z,95.49
2023-04-30T03:10:27.096Z,95.65
2023-04-30T03:11:27.190Z,95.65
2023-04-30T03:12:27.269Z,95.65
2023-04-30T03:13:27.360Z,95.76
2023-04-30T03:14:27.425Z,95.86
2023-04-30T03:15:27.532Z,95.76
2023-04-30T03:16:27.615Z,95.70
2023-04-30T03:17:27.703Z,95.70
2023-04-30T03:18:27.734Z,95.70
2023-04-30T03:19:27.763Z,95.59
2023-04-30T03:20:27.859Z,95.49
2023-04-30T03:21:27.941Z,95.39
2023-04-30T03:22:28.045Z,95.49
2023-04-30T03:23:28.180Z,95.39
2023-04-30T03:24:28.227Z,95.49
2023-04-30T03:25:28.307Z,95.49
2023-04-30T03:26:28.369Z,95.49
2023-04-30T03:27:28.431Z,95.49
2023-04-30T03:28:28.519Z,95.49
2023-04-30T03:29:28.571Z,95.39
2023-04-30T03:30:28.669Z,95.39
2023-04-30T03:31:28.814Z,95.49
2023-04-30T03:32:28.862Z,95.39
2023-04-30T03:33:28.990Z,95.39
2023-04-30T03:34:28.986Z,95.28
2023-04-30T03:35:29.045Z,95.18
2023-04-30T03:36:29.129Z,95.07
2023-04-30T03:37:29.195Z,95.07
2023-04-30T03:38:29.333Z,95.07
2023-04-30T03:39:29.397Z,95.07
2023-04-30T03:40:29.479Z,94.97
2023-04-30T03:41:29.550Z,94.97
2023-04-30T03:42:29.651Z,94.81
2023-04-30T03:43:29.717Z,94.92
2023-04-30T03:44:29.820Z,95.02
2023-04-30T03:45:29.903Z,95.12
2023-04-30T03:46:30.006Z,94.87
2023-04-30T03:47:30.094Z,94.81
2023-04-30T03:48:30.171Z,94.81
2023-04-30T03:49:30.242Z,94.67
2023-04-30T03:50:30.317Z,94.56
2023-04-30T03:51:30.409Z,94.46
2023-04-30T03:52:30.480Z,94.40
2023-04-30T03:53:30.622Z,94.40
2023-04-30T03:54:30.621Z,94.40
2023-04-30T03:55:30.690Z,94.40
2023-04-30T03:56:30.794Z,94.50
2023-04-30T03:57:30.860Z,94.50
2023-04-30T03:58:30.964Z,94.50
2023-04-30T03:59:31.027Z,94.29
2023-04-30T04:00:31.129Z,94.19
2023-04-30T04:01:31.190Z,93.88
2023-04-30T04:02:31.325Z,93.78
2023-04-30T04:03:31.382Z,93.68
2023-04-30T04:04:31.580Z,93.57
2023-04-30T04:05:31.572Z,93.78
2023-04-30T04:06:31.789Z,93.88
2023-04-30T04:07:31.723Z,93.88
2023-04-30T04:08:31.837Z,93.98
2023-04-30T04:09:31.909Z,93.88
2023-04-30T04:10:31.955Z,93.88
2023-04-30T04:11:32.027Z,93.98
2023-04-30T04:12:32.137Z,93.98
2023-04-30T04:13:32.213Z,93.88
2023-04-30T04:14:32.291Z,93.78
2023-04-30T04:15:32.353Z,93.78
2023-04-30T04:16:32.497Z,93.93
2023-04-30T04:17:32.531Z,93.93
2023-04-30T04:18:32.616Z,93.93
2023-04-30T04:19:32.640Z,94.03
2023-04-30T04:20:32.750Z,94.13
2023-04-30T04:21:32.820Z,94.13
2023-04-30T04:22:32.930Z,94.13
2023-04-30T04:23:33.005Z,94.23
2023-04-30T04:24:33.082Z,94.23
2023-04-30T04:25:33.149Z,94.34
2023-04-30T04:26:33.229Z,94.34
2023-04-30T04:27:33.299Z,94.23
2023-04-30T04:28:33.383Z,94.28
2023-04-30T04:29:33.455Z,94.34
2023-04-30T04:30:33.536Z,94.44
2023-04-30T04:31:33.628Z,94.34
2023-04-30T04:32:33.726Z,94.44
2023-04-30T04:33:33.762Z,94.65
2023-04-30T04:34:33.857Z,94.75
2023-04-30T04:35:33.928Z,94.75
2023-04-30T04:36:34.029Z,94.85
2023-04-30T04:37:34.079Z,94.96
2023-04-30T04:38:34.170Z,94.96
2023-04-30T04:39:34.239Z,94.96
2023-04-30T04:40:34.356Z,94.85
2023-04-30T04:41:34.391Z,94.75
2023-04-30T04:42:34.505Z,94.65
2023-04-30T04:43:34.635Z,94.44
2023-04-30T04:44:34.644Z,94.34
2023-04-30T04:45:34.711Z,94.34
2023-04-30T04:46:34.803Z,94.23
2023-04-30T04:47:34.869Z,94.13
2023-04-30T04:48:34.955Z,93.93
2023-04-30T04:49:35.017Z,93.93
2023-04-30T04:50:35.102Z,93.93
2023-04-30T04:51:35.161Z,93.93
2023-04-30T04:52:35.249Z,93.93
2023-04-30T04:53:35.350Z,94.03
2023-04-30T04:54:35.412Z,94.13
2023-04-30T04:55:35.470Z,94.23
2023-04-30T04:56:35.559Z,94.19
2023-04-30T04:57:35.633Z,94.29
2023-04-30T04:58:35.763Z,94.09
2023-04-30T04:59:35.820Z,93.57
2023-04-30T05:00:35.895Z,93.57
2023-04-30T05:01:36.022Z,93.47
2023-04-30T05:02:36.198Z,93.51
2023-04-30T05:03:36.249Z,93.47
2023-04-30T05:04:36.227Z,93.47
2023-04-30T05:05:36.280Z,93.47
2023-04-30T05:06:36.422Z,93.37
2023-04-30T05:07:36.457Z,93.37
2023-04-30T05:08:36.578Z,93.26
2023-04-30T05:09:36.625Z,93.12
2023-04-30T05:10:36.720Z,93.12
2023-04-30T05:11:36.784Z,93.12
2023-04-30T05:12:36.901Z,93.07
2023-04-30T05:13:36.999Z,93.07
2023-04-30T05:14:37.085Z,92.86
2023-04-30T05:15:37.154Z,92.35
2023-04-30T05:16:37.396Z,91.89
2023-04-30T05:17:37.383Z,91.48
2023-04-30T05:18:37.534Z,91.28
2023-04-30T05:19:37.509Z,91.07
2023-04-30T05:20:37.594Z,90.86
2023-04-30T05:21:37.668Z,90.76
2023-04-30T05:22:37.752Z,90.72
2023-04-30T05:23:37.850Z,90.61
2023-04-30T05:24:37.939Z,90.51
2023-04-30T05:25:37.991Z,90.20
2023-04-30T05:26:38.072Z,90.10
2023-04-30T05:27:38.147Z,90.26
2023-04-30T05:28:38.256Z,90.26
2023-04-30T05:29:38.320Z,90.37
2023-04-30T05:30:38.411Z,90.37
2023-04-30T05:31:38.534Z,90.37
2023-04-30T05:32:38.605Z,90.33
2023-04-30T05:33:38.660Z,90.22
2023-04-30T05:34:38.815Z,90.12
2023-04-30T05:35:38.789Z,90.12
2023-04-30T05:36:38.923Z,90.22
2023-04-30T05:37:38.957Z,90.33
2023-04-30T05:38:39.062Z,90.43
2023-04-30T05:39:39.116Z,90.49
2023-04-30T05:40:39.188Z,90.39
2023-04-30T05:41:39.266Z,90.28
2023-04-30T05:42:39.335Z,90.14
2023-04-30T05:43:39.420Z,90.14
2023-04-30T05:44:39.500Z,89.94
2023-04-30T05:45:39.632Z,89.83
2023-04-30T05:46:39.668Z,89.79
2023-04-30T05:47:39.767Z,89.79
2023-04-30T05:48:39.862Z,89.64
2023-04-30T05:49:39.918Z,89.64
2023-04-30T05:50:40.017Z,89.64
2023-04-30T05:51:40.072Z,89.40
2023-04-30T05:52:40.166Z,89.19
2023-04-30T05:53:40.276Z,88.89
2023-04-30T05:54:40.354Z,88.64
2023-04-30T05:55:40.448Z,88.53
2023-04-30T05:56:40.527Z,88.53
2023-04-30T05:57:40.581Z,88.59
2023-04-30T05:58:40.685Z,88.18
2023-04-30T05:59:40.739Z,88.08
2023-04-30T06:00:40.982Z,88.08
2023-04-30T06:01:40.972Z,88.14
2023-04-30T06:02:41.066Z,88.00
2023-04-30T06:03:41.124Z,88.00
2023-04-30T06:04:41.292Z,87.79
2023-04-30T06:05:41.487Z,87.65
2023-04-30T06:06:41.444Z,87.65
2023-04-30T06:07:41.435Z,87.51
2023-04-30T06:08:41.629Z,87.71
2023-04-30T06:09:41.582Z,87.61
2023-04-30T06:10:41.662Z,87.47
2023-04-30T06:11:42.675Z,87.10
2023-04-30T06:12:41.843Z,87.10
2023-04-30T06:13:41.938Z,87.41
2023-04-30T06:14:41.977Z,87.57
2023-04-30T06:15:42.049Z,87.88
2023-04-30T06:16:42.151Z,87.98
2023-04-30T06:17:42.249Z,87.98
2023-04-30T06:18:42.303Z,87.94
2023-04-30T06:19:42.365Z,87.73
2023-04-30T06:20:42.446Z,87.67
2023-04-30T06:21:42.515Z,87.84
2023-04-30T06:22:42.600Z,87.47
2023-04-30T06:23:42.709Z,87.57
2023-04-30T06:24:42.776Z,87.82
2023-04-30T06:25:42.846Z,88.23
2023-04-30T06:26:42.949Z,88.74
2023-04-30T06:27:43.030Z,88.64
2023-04-30T06:28:43.132Z,88.84
2023-04-30T06:29:43.198Z,88.94
2023-04-30T06:30:43.267Z,88.84
2023-04-30T06:31:43.358Z,88.74
2023-04-30T06:32:43.475Z,89.39
2023-04-30T06:33:43.506Z,89.90
2023-04-30T06:34:43.580Z,89.90
2023-04-30T06:35:43.660Z,89.90
2023-04-30T06:36:43.739Z,90.01
2023-04-30T06:37:43.823Z,90.17
2023-04-30T06:38:43.915Z,90.28
2023-04-30T06:39:43.991Z,90.07
2023-04-30T06:40:44.069Z,90.17
2023-04-30T06:41:44.146Z,90.28
2023-04-30T06:42:45.698Z,90.48
2023-04-30T06:43:44.330Z,90.44
2023-04-30T06:44:44.413Z,90.34
2023-04-30T06:45:44.558Z,90.13
2023-04-30T06:46:44.619Z,89.89
2023-04-30T06:47:44.667Z,89.58
2023-04-30T06:48:44.759Z,89.47
2023-04-30T06:49:44.794Z,89.53
2023-04-30T06:50:45.029Z,89.23
2023-04-30T06:51:44.970Z,88.82
2023-04-30T06:52:45.035Z,88.82
2023-04-30T06:53:45.124Z,88.71
2023-04-30T06:54:45.186Z,89.03
2023-04-30T06:55:45.261Z,88.82
2023-04-30T06:56:45.342Z,88.62
2023-04-30T06:57:45.451Z,88.96
2023-04-30T06:58:45.578Z,89.47
2023-04-30T06:59:45.611Z,89.68
2023-04-30T07:00:45.685Z,89.68
2023-04-30T07:01:45.861Z,89.58
2023-04-30T07:02:45.890Z,89.37
2023-04-30T07:03:46.020Z,88.96
2023-04-30T07:04:46.045Z,88.76
2023-04-30T07:05:46.144Z,89.03
2023-04-30T07:06:46.282Z,89.12
2023-04-30T07:07:46.317Z,89.33
2023-04-30T07:08:46.408Z,89.39
2023-04-30T07:09:46.477Z,88.88
2023-04-30T07:10:46.562Z,88.20
2023-04-30T07:11:46.661Z,88.51
2023-04-30T07:12:46.745Z,89.33
2023-04-30T07:13:46.878Z,89.64
2023-04-30T07:14:46.907Z,89.64
2023-04-30T07:15:47.036Z,89.50
2023-04-30T07:16:47.082Z,89.50
2023-04-30T07:17:47.243Z,89.25
2023-04-30T07:18:47.291Z,88.70
2023-04-30T07:19:47.356Z,87.98
2023-04-30T07:20:47.440Z,88.04
2023-04-30T07:21:47.524Z,87.59
2023-04-30T07:22:47.599Z,86.26
2023-04-30T07:23:47.702Z,85.51
2023-04-30T07:24:47.755Z,85.37
2023-04-30T07:25:47.861Z,84.25
2023-04-30T07:26:47.927Z,84.11
2023-04-30T07:27:48.017Z,83.25
2023-04-30T07:28:48.104Z,82.68
2023-04-30T07:29:48.189Z,83.18
2023-04-30T07:30:48.267Z,82.64
2023-04-30T07:31:48.363Z,81.86
2023-04-30T07:32:48.416Z,82.13
2023-04-30T07:33:48.537Z,81.62
2023-04-30T07:34:48.587Z,81.48
2023-04-30T07:35:48.653Z,81.17
2023-04-30T07:36:48.713Z,80.69
2023-04-30T07:37:48.783Z,79.70
2023-04-30T07:38:48.878Z,78.17
2023-04-30T07:39:48.949Z,76.40
2023-04-30T07:40:49.015Z,74.07
2023-04-30T07:41:49.123Z,71.50
2023-04-30T07:42:49.201Z,70.96
2023-04-30T07:43:49.308Z,69.01
2023-04-30T07:44:49.369Z,67.19
2023-04-30T07:45:49.524Z,67.49
2023-04-30T07:46:49.486Z,67.16
2023-04-30T07:47:49.595Z,67.56
2023-04-30T07:48:49.655Z,67.23
2023-04-30T07:49:49.717Z,66.62
2023-04-30T07:50:51.443Z,65.75
2023-04-30T07:51:49.884Z,66.15
2023-04-30T07:52:49.951Z,64.84
2023-04-30T07:53:50.087Z,63.78
2023-04-30T07:54:50.146Z,61.77
2023-04-30T07:55:50.245Z,60.78
2023-04-30T07:56:50.353Z,58.96
2023-04-30T07:57:50.402Z,56.37
2023-04-30T07:58:50.523Z,54.37
2023-04-30T07:59:52.334Z,53.14
2023-04-30T08:00:50.663Z,52.25
2023-04-30T08:01:50.816Z,52.55
2023-04-30T08:02:51.200Z,52.69
2023-04-30T08:03:51.060Z,51.75
2023-04-30T08:04:50.987Z,50.68
2023-04-30T08:05:51.068Z,49.63
2023-04-30T08:06:51.193Z,48.64
2023-04-30T08:07:51.239Z,48.19
2023-04-30T08:08:51.332Z,47.40
2023-04-30T08:09:51.401Z,47.97
2023-04-30T08:10:51.473Z,46.76
2023-04-30T08:11:51.540Z,46.83
2023-04-30T08:12:51.600Z,45.60
2023-04-30T08:13:51.732Z,44.68
2023-04-30T08:14:51.794Z,45.26
2023-04-30T08:15:51.884Z,44.35
2023-04-30T08:16:51.991Z,43.71
2023-04-30T08:17:52.062Z,42.64
2023-04-30T08:18:52.117Z,43.41
2023-04-30T08:19:52.680Z,42.11
2023-04-30T08:20:52.255Z,42.52
2023-04-30T08:21:52.362Z,42.82
2023-04-30T08:22:52.453Z,42.30
2023-04-30T08:23:52.525Z,41.17
2023-04-30T08:24:52.591Z,41.28
2023-04-30T08:25:52.681Z,41.08
2023-04-30T08:26:54.267Z,41.06
2023-04-30T08:27:52.839Z,40.84
2023-04-30T08:28:52.929Z,40.88
2023-04-30T08:29:53.166Z,42.16
2023-04-30T08:30:53.068Z,41.20
2023-04-30T08:31:53.187Z,42.57
2023-04-30T08:32:55.987Z,43.65
2023-04-30T08:33:53.365Z,43.79
2023-04-30T08:34:53.596Z,44.01
2023-04-30T08:35:53.487Z,44.93
2023-04-30T08:36:53.537Z,44.39
2023-04-30T08:37:53.639Z,43.49
2023-04-30T08:38:53.750Z,43.77
2023-04-30T08:39:53.964Z,43.63
2023-04-30T08:40:53.860Z,42.72
2023-04-30T08:41:53.962Z,42.62
2023-04-30T08:42:54.035Z,41.81
2023-04-30T08:43:54.128Z,42.52
2023-04-30T08:44:54.177Z,42.16
2023-04-30T08:45:54.272Z,41.73
2023-04-30T08:46:54.324Z,40.09
2023-04-30T08:47:54.428Z,40.17
2023-04-30T08:48:54.479Z,39.64
2023-04-30T08:49:54.783Z,38.31
2023-04-30T08:50:54.642Z,37.23
2023-04-30T08:51:54.733Z,37.60
2023-04-30T08:52:54.794Z,36.51
2023-04-30T08:53:54.900Z,35.68
2023-04-30T08:54:54.969Z,35.86
2023-04-30T08:55:55.041Z,35.00
2023-04-30T08:56:55.107Z,35.49
2023-04-30T08:57:55.177Z,36.18
2023-04-30T08:58:55.267Z,37.72
2023-04-30T08:59:55.646Z,36.63
2023-04-30T09:00:55.427Z,35.46
2023-04-30T09:01:55.523Z,35.16
2023-04-30T09:02:55.653Z,36.85
2023-04-30T09:03:55.818Z,37.34
2023-04-30T09:04:55.671Z,37.42
2023-04-30T09:05:55.833Z,36.42
2023-04-30T09:06:55.839Z,35.72
2023-04-30T09:08:56.029Z,35.21
2023-04-30T09:09:56.497Z,35.11
2023-04-30T09:10:56.177Z,34.28
2023-04-30T09:11:56.279Z,36.47
2023-04-30T09:12:56.336Z,35.90
2023-04-30T09:13:56.463Z,34.72
2023-04-30T09:14:56.523Z,35.20
2023-04-30T09:15:56.647Z,35.10
2023-04-30T09:16:56.699Z,34.69
2023-04-30T09:17:56.826Z,34.30
2023-04-30T09:18:56.887Z,32.20
2023-04-30T09:19:57.226Z,32.62
2023-04-30T09:20:57.008Z,32.53
2023-04-30T09:21:57.114Z,35.02
2023-04-30T09:22:57.165Z,35.35
2023-04-30T09:23:57.291Z,35.34
2023-04-30T09:24:57.354Z,35.34
2023-04-30T09:25:57.460Z,36.74
2023-04-30T09:26:57.505Z,35.12
2023-04-30T09:27:57.594Z,35.96
2023-04-30T09:28:57.667Z,35.22
2023-04-30T09:29:57.736Z,35.00
2023-04-30T09:30:57.801Z,33.29
2023-04-30T09:31:57.880Z,32.68
2023-04-30T09:32:57.966Z,33.03
2023-04-30T09:33:58.031Z,33.23
2023-04-30T09:34:58.061Z,33.39
2023-04-30T09:35:58.170Z,33.09
2023-04-30T09:36:58.233Z,30.95
2023-04-30T09:37:58.334Z,32.61
2023-04-30T09:38:58.406Z,34.83
2023-04-30T09:39:58.477Z,35.14
2023-04-30T09:40:58.530Z,36.10
2023-04-30T09:41:58.622Z,32.73
2023-04-30T09:42:58.685Z,35.79
2023-04-30T09:43:58.771Z,37.68
2023-04-30T09:44:58.830Z,36.45
2023-04-30T09:45:58.924Z,34.03
2023-04-30T09:46:59.287Z,33.03
2023-04-30T09:48:05.670Z,33.90
2023-04-30T09:48:59.218Z,34.27
2023-04-30T09:49:59.245Z,34.63
2023-04-30T09:50:59.320Z,34.13
2023-04-30T09:51:59.415Z,32.83
2023-04-30T09:52:59.484Z,33.40
2023-04-30T09:53:59.620Z,34.71
2023-04-30T09:54:59.659Z,34.30
2023-04-30T09:55:59.762Z,36.70
2023-04-30T09:56:59.817Z,37.58
2023-04-30T09:57:59.884Z,34.94
2023-04-30T09:58:59.980Z,34.50
2023-04-30T10:00:00.049Z,33.78
2023-04-30T10:01:00.185Z,33.17
2023-04-30T10:02:00.183Z,33.16
2023-04-30T10:03:00.305Z,33.28
2023-04-30T10:04:00.398Z,32.63
2023-04-30T10:05:00.421Z,35.44
2023-04-30T10:06:00.549Z,35.26
2023-04-30T10:07:00.592Z,36.27
2023-04-30T10:08:00.659Z,36.82
2023-04-30T10:09:00.775Z,37.23
2023-04-30T10:10:00.848Z,36.54
2023-04-30T10:11:00.883Z,35.33
2023-04-30T10:12:01.006Z,37.46
2023-04-30T10:13:01.075Z,38.92
2023-04-30T10:14:01.160Z,39.10
2023-04-30T10:15:01.218Z,37.77
2023-04-30T10:16:01.382Z,37.97
2023-04-30T10:17:01.443Z,40.40
2023-04-30T10:18:01.519Z,39.92
2023-04-30T10:19:01.577Z,38.85
2023-04-30T10:20:01.657Z,39.78
2023-04-30T10:21:01.693Z,40.59
2023-04-30T10:22:01.773Z,41.09
2023-04-30T10:23:01.851Z,41.09
2023-04-30T10:24:01.957Z,41.31
2023-04-30T10:25:02.016Z,42.71
2023-04-30T10:26:02.089Z,42.76
2023-04-30T10:27:02.171Z,42.74
2023-04-30T10:28:04.689Z,44.36
2023-04-30T10:29:02.409Z,45.25
2023-04-30T10:30:02.475Z,45.67
2023-04-30T10:31:02.523Z,44.96
2023-04-30T10:32:02.686Z,44.96
2023-04-30T10:33:02.709Z,45.54
2023-04-30T10:34:02.778Z,41.69
2023-04-30T10:35:02.877Z,41.97
2023-04-30T10:36:02.929Z,43.24
2023-04-30T10:37:03.071Z,43.26
2023-04-30T10:38:03.070Z,43.43
2023-04-30T10:39:03.164Z,42.43
2023-04-30T10:40:03.244Z,44.06
2023-04-30T10:41:03.317Z,45.24
2023-04-30T10:42:03.399Z,43.18
2023-04-30T10:43:03.487Z,44.78
2023-04-30T10:44:03.571Z,43.48
2023-04-30T10:45:03.644Z,44.00
2023-04-30T10:46:03.813Z,42.83
2023-04-30T10:47:03.806Z,43.48
2023-04-30T10:48:03.965Z,42.88
2023-04-30T10:49:03.986Z,45.17
2023-04-30T10:50:04.109Z,43.52
2023-04-30T10:51:04.156Z,43.50
2023-04-30T10:52:04.232Z,42.97
2023-04-30T10:53:04.303Z,43.93
2023-04-30T10:54:04.411Z,43.01
2023-04-30T10:55:04.447Z,42.19
2023-04-30T10:56:04.544Z,42.11
2023-04-30T10:57:04.629Z,41.52
2023-04-30T10:58:04.715Z,43.13
2023-04-30T10:59:04.815Z,42.74
2023-04-30T11:00:04.899Z,43.74
2023-04-30T11:01:05.051Z,44.01
2023-04-30T11:02:05.065Z,44.42
2023-04-30T11:03:05.204Z,42.90
2023-04-30T11:04:05.257Z,40.69
2023-04-30T11:05:05.367Z,43.07
2023-04-30T11:06:05.392Z,41.58
2023-04-30T11:07:05.460Z,41.58
2023-04-30T11:08:05.543Z,41.47
2023-04-30T11:09:05.648Z,42.97
2023-04-30T11:10:05.691Z,42.90
2023-04-30T11:11:05.781Z,43.21
2023-04-30T11:12:05.843Z,43.63
2023-04-30T11:13:05.920Z,44.35
2023-04-30T11:14:06.032Z,44.28
2023-04-30T11:15:06.102Z,44.88
2023-04-30T11:16:06.213Z,44.70
2023-04-30T11:17:06.286Z,44.40
2023-04-30T11:18:06.410Z,43.90
2023-04-30T11:19:06.487Z,44.90
2023-04-30T11:20:06.536Z,44.88
2023-04-30T11:21:06.624Z,44.38
2023-04-30T11:22:06.708Z,44.35
2023-04-30T11:23:06.813Z,44.43
2023-04-30T11:24:06.914Z,44.54
2023-04-30T11:25:07.003Z,44.62
2023-04-30T11:26:07.108Z,44.71
2023-04-30T11:27:07.212Z,45.62
2023-04-30T11:28:07.281Z,43.84
2023-04-30T11:29:07.432Z,44.13
2023-04-30T11:30:07.476Z,45.54
2023-04-30T11:31:07.573Z,44.54
2023-04-30T11:32:07.588Z,44.35
2023-04-30T11:33:07.697Z,42.40
2023-04-30T11:34:07.759Z,42.69
2023-04-30T11:35:07.861Z,43.19
2023-04-30T11:36:08.014Z,43.30
2023-04-30T11:37:07.999Z,44.10
2023-04-30T11:38:08.052Z,44.40
2023-04-30T11:39:08.156Z,44.30
2023-04-30T11:40:08.219Z,43.60
2023-04-30T11:41:08.279Z,44.10
2023-04-30T11:42:08.335Z,43.80
2023-04-30T11:43:08.412Z,44.90
2023-04-30T11:44:08.489Z,44.60
2023-04-30T11:45:08.551Z,44.70
2023-04-30T11:46:08.743Z,46.11
2023-04-30T11:47:08.821Z,43.72
2023-04-30T11:48:08.808Z,45.14
2023-04-30T11:49:08.853Z,44.62
2023-04-30T11:50:08.946Z,44.50
2023-04-30T11:51:08.983Z,44.10
2023-04-30T11:52:09.049Z,43.38
2023-04-30T11:53:09.125Z,42.57
2023-04-30T11:54:09.215Z,43.08
2023-04-30T11:55:09.282Z,43.48
2023-04-30T11:56:09.363Z,42.19
2023-04-30T11:57:09.434Z,42.52
2023-04-30T11:58:09.526Z,43.62
2023-04-30T11:59:09.592Z,43.84
2023-04-30T12:00:09.650Z,43.04
2023-04-30T12:01:09.875Z,43.46
2023-04-30T12:02:12.262Z,44.79
2023-04-30T12:03:09.957Z,44.91
2023-04-30T12:04:10.098Z,44.89
2023-04-30T12:05:10.055Z,45.69
2023-04-30T12:06:10.223Z,44.89
2023-04-30T12:07:10.216Z,44.89
2023-04-30T12:08:10.287Z,46.29
2023-04-30T12:09:10.405Z,46.67
2023-04-30T12:10:10.461Z,45.97
2023-04-30T12:11:10.529Z,46.67
2023-04-30T12:12:10.622Z,46.04
2023-04-30T12:13:10.697Z,42.74
2023-04-30T12:14:10.813Z,43.84
2023-04-30T12:15:10.883Z,44.04
2023-04-30T12:16:10.970Z,44.42
2023-04-30T12:17:11.063Z,43.92
2023-04-30T12:18:11.266Z,43.14
2023-04-30T12:19:11.221Z,42.83
2023-04-30T12:20:11.287Z,43.82
2023-04-30T12:21:11.365Z,43.32
2023-04-30T12:22:11.434Z,42.02
2023-04-30T12:23:11.520Z,42.19
2023-04-30T12:24:11.615Z,43.38
2023-04-30T12:25:11.725Z,43.27
2023-04-30T12:26:11.770Z,41.67
2023-04-30T12:27:11.832Z,40.99
2023-04-30T12:28:11.909Z,41.91
2023-04-30T12:29:15.051Z,43.62
2023-04-30T12:30:12.100Z,44.80
2023-04-30T12:31:12.188Z,42.49
2023-04-30T12:32:12.231Z,42.10
2023-04-30T12:33:12.329Z,41.60
2023-04-30T12:34:12.394Z,41.27
2023-04-30T12:35:12.465Z,42.57
2023-04-30T12:36:12.541Z,41.97
2023-04-30T12:37:12.599Z,40.97
2023-04-30T12:38:12.664Z,39.37
2023-04-30T12:39:12.756Z,39.17
2023-04-30T12:40:12.805Z,39.77
2023-04-30T12:41:12.907Z,40.47
2023-04-30T12:42:13.001Z,41.17
2023-04-30T12:43:13.107Z,42.97
2023-04-30T12:44:13.228Z,41.75
2023-04-30T12:45:13.278Z,41.75
2023-04-30T12:46:13.397Z,42.74
2023-04-30T12:47:13.442Z,41.24
2023-04-30T12:48:13.508Z,41.33
2023-04-30T12:49:13.630Z,42.93
2023-04-30T12:50:13.706Z,41.53
2023-04-30T12:51:13.761Z,41.53
2023-04-30T12:52:13.816Z,42.96
2023-04-30T12:53:13.922Z,41.96
2023-04-30T12:54:13.983Z,41.05